Time;durP1;ratioP1;P1;durP2;ratioP2;P2;SDS_P1;SDS_P2;PMS_P1;PMS_P2;Temp;Humidity;BMP_temperature;BMP_pressure;BME280_temperature;BME280_humidity;BME280_pressure;Samples;Min_cycle;Max_cycle;Signal;HPM_P1;HPM_P2
2023/12/24 00:00:42;;;;;;;1999.90;999.90;;;;;;;8.21;59.32;95400.75;5075705;28;20044;-60
2023/12/24 00:03:09;;;;;;;1999.90;999.90;;;;;;;8.29;58.44;95389.13;5075720;28;20048;-65
2023/12/24 00:05:38;;;;;;;1999.90;999.90;;;;;;;8.29;58.35;95405.63;5075605;28;20055;-62
2023/12/24 00:08:05;;;;;;;1999.90;999.90;;;;;;;8.35;58.53;95404.47;5075674;28;20047;-61
2023/12/24 00:10:33;;;;;;;1999.90;999.90;;;;;;;8.40;58.12;95401.66;5075551;28;20052;-64
2023/12/24 00:13:00;;;;;;;1999.90;999.90;;;;;;;8.44;57.54;95388.41;5075484;28;20053;-60
2023/12/24 00:15:28;;;;;;;1999.90;999.90;;;;;;;8.47;57.77;95405.66;5075482;28;20049;-64
2023/12/24 00:17:56;;;;;;;1999.90;999.90;;;;;;;8.46;58.01;95407.41;5075194;28;20553;-61
2023/12/24 00:20:24;;;;;;;1999.90;999.90;;;;;;;8.51;57.02;95416.78;5075504;28;20052;-64
2023/12/24 00:23:06;;;;;;;1999.90;999.90;;;;;;;8.56;57.03;95431.31;5075256;28;20063;-63
2023/12/24 00:25:33;;;;;;;1999.90;999.90;;;;;;;8.55;56.54;95426.19;5074171;28;20044;-60
2023/12/24 00:28:00;;;;;;;1999.90;999.90;;;;;;;8.61;56.59;95425.03;5075181;28;20559;-62
2023/12/24 00:30:28;;;;;;;1999.90;999.90;;;;;;;8.63;56.17;95439.69;5075211;28;20048;-60
2023/12/24 00:32:55;;;;;;;1999.90;999.90;;;;;;;8.70;55.43;95437.66;5075245;28;20052;-62
2023/12/24 00:35:23;;;;;;;1999.90;999.90;;;;;;;8.71;55.58;95448.00;5075113;28;20129;-63
2023/12/24 00:37:51;;;;;;;1999.90;999.90;;;;;;;8.75;55.78;95448.69;5075072;28;20052;-63
2023/12/24 00:40:20;;;;;;;1999.90;999.90;;;;;;;8.76;54.83;95450.34;5075068;28;20156;-65
2023/12/24 00:42:47;;;;;;;1999.90;999.90;;;;;;;8.83;54.79;95462.22;5074919;28;20045;-64
2023/12/24 00:45:14;;;;;;;1999.90;999.90;;;;;;;8.85;54.43;95462.09;5074832;28;20127;-64
2023/12/24 00:47:41;;;;;;;1999.90;999.90;;;;;;;8.85;54.78;95460.34;5074848;28;20048;-65
2023/12/24 00:50:09;;;;;;;1999.90;999.90;;;;;;;8.88;54.73;95455.91;5074739;28;20070;-65
2023/12/24 00:52:37;;;;;;;1999.90;999.90;;;;;;;8.89;54.51;95470.63;5074668;28;20490;-64
2023/12/24 00:55:05;;;;;;;1999.90;999.90;;;;;;;8.82;55.05;95468.31;5074674;28;20045;-63
2023/12/24 00:57:34;;;;;;;1999.90;999.90;;;;;;;8.88;53.60;95463.75;5074888;28;20052;-65
2023/12/24 01:00:01;;;;;;;1999.90;999.90;;;;;;;8.90;54.86;95470.56;5074634;28;20075;-62
2023/12/24 01:02:29;;;;;;;1999.90;999.90;;;;;;;8.94;54.39;95477.31;5074532;28;20410;-62
2023/12/24 01:04:56;;;;;;;1999.90;999.90;;;;;;;8.99;54.39;95477.09;5074468;28;20449;-65
2023/12/24 01:07:23;;;;;;;1999.90;999.90;;;;;;;8.96;54.05;95475.50;5074616;28;20102;-66
2023/12/24 01:09:50;;;;;;;1999.90;999.90;;;;;;;8.98;53.36;95464.97;5074625;28;20049;-65
2023/12/24 01:12:17;;;;;;;1999.90;999.90;;;;;;;8.94;53.45;95466.06;5074421;28;20048;-66
2023/12/24 01:14:46;;;;;;;1999.90;999.90;;;;;;;9.06;52.49;95462.00;5074257;28;20048;-65
2023/12/24 01:17:14;;;;;;;1999.90;999.90;;;;;;;9.14;51.87;95445.94;5074295;28;20060;-64
2023/12/24 01:19:42;;;;;;;1999.90;999.90;;;;;;;9.29;50.47;95462.59;5074055;28;20056;-64
2023/12/24 01:22:09;;;;;;;1999.90;999.90;;;;;;;9.29;51.82;95460.84;5074359;28;20062;-63
2023/12/24 01:24:36;;;;;;;1999.90;999.90;;;;;;;9.28;50.84;95463.53;5074457;28;20053;-66
2023/12/24 01:27:03;;;;;;;1999.90;999.90;;;;;;;9.29;50.52;95471.28;5074098;28;20071;-63
2023/12/24 01:29:30;;;;;;;1999.90;999.90;;;;;;;9.32;50.90;95471.13;5073930;28;20135;-63
2023/12/24 01:31:58;;;;;;;1999.90;999.90;;;;;;;9.38;50.09;95469.97;5073752;28;20135;-64
2023/12/24 01:34:26;;;;;;;1999.90;999.90;;;;;;;9.48;48.67;95471.19;5073879;28;20080;-65
2023/12/24 01:36:53;;;;;;;1999.90;999.90;;;;;;;9.50;49.85;95465.91;5073630;28;20094;-62
2023/12/24 01:39:20;;;;;;;1999.90;999.90;;;;;;;9.45;50.46;95454.88;5073740;28;20422;-63
2023/12/24 01:41:48;;;;;;;1999.90;999.90;;;;;;;9.45;49.51;95463.53;5073742;28;20490;-64
2023/12/24 01:44:15;;;;;;;1999.90;999.90;;;;;;;9.46;49.68;95475.66;5073518;28;20045;-65
2023/12/24 01:46:42;;;;;;;1999.90;999.90;;;;;;;9.49;49.71;95474.66;5073681;28;20422;-66
2023/12/24 01:49:14;;;;;;;1999.90;999.90;;;;;;;9.52;48.92;95474.50;5073571;28;20509;-64
2023/12/24 01:51:41;;;;;;;1999.90;999.90;;;;;;;9.55;49.54;95482.19;5073596;28;20076;-64
2023/12/24 01:54:08;;;;;;;1999.90;999.90;;;;;;;9.55;48.93;95478.72;5073678;28;20052;-64
2023/12/24 01:56:38;;;;;;;1999.90;999.90;;;;;;;9.61;47.50;95481.84;5073424;28;20453;-64
2023/12/24 01:59:06;;;;;;;1999.90;999.90;;;;;;;9.66;47.68;95504.31;5073591;28;20044;-63
2023/12/24 02:01:34;;;;;;;1999.90;999.90;;;;;;;9.67;47.96;95498.16;5073393;28;20060;-66
2023/12/24 02:04:01;;;;;;;1999.90;999.90;;;;;;;9.69;47.60;95504.97;5073405;28;20472;-63
2023/12/24 02:06:30;;;;;;;1999.90;999.90;;;;;;;9.69;47.64;95506.75;5073353;28;20589;-63
2023/12/24 02:08:57;;;;;;;1999.90;999.90;;;;;;;9.63;48.05;95507.88;5073419;28;20080;-66
2023/12/24 02:11:24;;;;;;;1999.90;999.90;;;;;;;9.63;48.44;95539.22;5073173;28;20084;-65
2023/12/24 02:13:51;;;;;;;1999.90;999.90;;;;;;;9.65;49.05;95521.72;5073157;28;20395;-64
2023/12/24 02:16:21;;;;;;;1999.90;999.90;;;;;;;9.63;48.68;95515.72;5073126;28;20052;-66
2023/12/24 02:18:49;;;;;;;1999.90;999.90;;;;;;;9.61;48.77;95525.41;5072936;28;20053;-65
2023/12/24 02:21:18;;;;;;;1999.90;999.90;;;;;;;9.54;48.91;95532.69;5073121;28;20281;-66
2023/12/24 02:23:45;;;;;;;1999.90;999.90;;;;;;;9.55;48.75;95542.25;5073145;28;20048;-64
2023/12/24 02:26:24;;;;;;;1999.90;999.90;;;;;;;9.55;48.64;95525.72;5073103;28;20047;-66
2023/12/24 02:28:57;;;;;;;1999.90;999.90;;;;;;;9.55;48.12;95536.16;5073054;28;20048;-64
2023/12/24 02:31:27;;;;;;;1999.90;999.90;;;;;;;9.60;48.41;95527.19;5073109;28;20047;-64
2023/12/24 02:33:58;;;;;;;1999.90;999.90;;;;;;;9.63;47.38;95539.22;5073054;28;20048;-63
2023/12/24 02:36:27;;;;;;;1999.90;999.90;;;;;;;9.64;47.36;95533.09;5072984;28;20045;-65
2023/12/24 02:38:57;;;;;;;1999.90;999.90;;;;;;;9.69;46.83;95553.75;5072982;28;20048;-61
2023/12/24 02:41:24;;;;;;;1999.90;999.90;;;;;;;9.66;47.01;95546.06;5072963;28;20045;-62
2023/12/24 02:43:51;;;;;;;1999.90;999.90;;;;;;;9.66;46.70;95528.63;5072862;28;20453;-62
2023/12/24 02:46:18;;;;;;;1999.90;999.90;;;;;;;9.70;46.57;95555.44;5072987;28;20402;-62
2023/12/24 02:48:45;;;;;;;1999.90;999.90;;;;;;;9.73;46.44;95547.47;5073356;28;20052;-62
2023/12/24 02:51:12;;;;;;;1999.90;999.90;;;;;;;9.79;46.07;95541.94;5077081;28;20091;-64
2023/12/24 02:53:41;;;;;;;1999.90;999.90;;;;;;;9.62;46.91;95550.59;5077016;28;20127;-64
2023/12/24 02:56:08;;;;;;;1999.90;999.90;;;;;;;9.63;45.88;95564.50;5076947;28;20055;-65
2023/12/24 02:58:35;;;;;;;1999.90;999.90;;;;;;;9.62;46.29;95568.88;5077065;28;20044;-65
2023/12/24 03:01:02;;;;;;;1999.90;999.90;;;;;;;9.67;46.19;95579.09;5076775;28;20623;-63
2023/12/24 03:03:29;;;;;;;1999.90;999.90;;;;;;;9.60;47.52;95574.16;5076676;28;20054;-62
2023/12/24 03:05:55;;;;;;;1999.90;999.90;;;;;;;9.52;46.79;95578.09;5076772;28;20045;-65
2023/12/24 03:08:22;;;;;;;1999.90;999.90;;;;;;;9.52;46.45;95572.88;5076650;28;20516;-65
2023/12/24 03:10:50;;;;;;;1999.90;999.90;;;;;;;9.48;47.14;95562.56;5076712;28;20045;-67
2023/12/24 03:13:17;;;;;;;1999.90;999.90;;;;;;;9.48;46.66;95590.44;5076777;28;20068;-65
2023/12/24 03:15:44;;;;;;;1999.90;999.90;;;;;;;9.45;46.78;95591.44;5076455;28;20041;-66
2023/12/24 03:18:12;;;;;;;1999.90;999.90;;;;;;;9.46;47.30;95597.50;5076312;28;20157;-62
2023/12/24 03:20:39;;;;;;;1999.90;999.90;;;;;;;9.49;47.39;95599.97;5076460;28;20044;-66
2023/12/24 03:23:05;;;;;;;1999.90;999.90;;;;;;;9.40;48.19;95600.41;5076380;28;20798;-65
2023/12/24 03:25:33;;;;;;;1999.90;999.90;;;;;;;9.28;48.51;95596.63;5076366;28;20123;-66
2023/12/24 03:28:02;;;;;;;1999.90;999.90;;;;;;;9.16;48.92;95591.09;5076245;28;20123;-63
2023/12/24 03:30:29;;;;;;;1999.90;999.90;;;;;;;9.14;49.22;95592.91;5076266;28;20045;-66
2023/12/24 03:32:56;;;;;;;1999.90;999.90;;;;;;;9.12;49.08;95586.09;5076108;28;20095;-65
2023/12/24 03:35:23;;;;;;;1999.90;999.90;;;;;;;9.01;49.44;95605.69;5076120;28;20056;-64
2023/12/24 03:37:50;;;;;;;1999.90;999.90;;;;;;;8.89;49.78;95591.47;5076193;28;20089;-63
2023/12/24 03:40:17;;;;;;;1999.90;999.90;;;;;;;8.87;50.16;95601.09;5076037;28;20091;-65
2023/12/24 03:42:44;;;;;;;1999.90;999.90;;;;;;;8.86;50.08;95599.44;5075858;28;20398;-64
2023/12/24 03:45:13;;;;;;;1999.90;999.90;;;;;;;8.87;49.11;95598.50;5076047;28;20048;-66
2023/12/24 03:47:40;;;;;;;1999.90;999.90;;;;;;;8.80;49.20;95605.78;5075934;28;20072;-66
2023/12/24 03:50:07;;;;;;;1999.90;999.90;;;;;;;8.80;48.96;95610.13;5075847;28;20084;-61
2023/12/24 03:52:34;;;;;;;1999.90;999.90;;;;;;;8.80;49.24;95624.03;5075932;28;20075;-62
2023/12/24 03:55:01;;;;;;;1999.90;999.90;;;;;;;8.83;48.83;95608.25;5075783;28;20079;-63
2023/12/24 03:57:28;;;;;;;1999.90;999.90;;;;;;;8.79;48.87;95603.25;5075778;28;20059;-65
2023/12/24 03:59:55;;;;;;;1999.90;999.90;;;;;;;8.74;48.86;95602.59;5075627;28;20091;-63
2023/12/24 04:02:24;;;;;;;1999.90;999.90;;;;;;;8.79;48.45;95600.63;5075797;28;20047;-63
2023/12/24 04:04:51;;;;;;;1999.90;999.90;;;;;;;8.78;48.55;95601.53;5075674;28;20105;-63
2023/12/24 04:07:19;;;;;;;1999.90;999.90;;;;;;;8.75;48.29;95604.28;5075517;28;20121;-65
2023/12/24 04:09:46;;;;;;;1999.90;999.90;;;;;;;8.69;48.39;95602.78;5075451;28;20084;-62
2023/12/24 04:12:13;;;;;;;1999.90;999.90;;;;;;;8.72;48.80;95605.25;5075453;28;20059;-62
2023/12/24 04:14:40;;;;;;;1999.90;999.90;;;;;;;8.71;47.94;95614.88;5075592;28;20052;-63
2023/12/24 04:17:08;;;;;;;1999.90;999.90;;;;;;;8.69;48.17;95601.03;5075523;28;20049;-64
2023/12/24 04:19:36;;;;;;;1999.90;999.90;;;;;;;8.68;48.37;95617.63;5075157;28;20186;-61
2023/12/24 04:22:04;;;;;;;1999.90;999.90;;;;;;;8.70;48.37;95627.97;5075306;28;20040;-65
2023/12/24 04:24:32;;;;;;;1999.90;999.90;;;;;;;8.63;48.11;95621.31;5075164;28;20052;-61
2023/12/24 04:27:00;;;;;;;1999.90;999.90;;;;;;;8.68;48.46;95633.25;5075396;28;20049;-63
2023/12/24 04:29:27;;;;;;;1999.90;999.90;;;;;;;8.66;49.20;95636.81;5075285;28;20136;-64
2023/12/24 04:31:54;;;;;;;1999.90;999.90;;;;;;;8.61;48.89;95644.03;5075247;28;20063;-65
2023/12/24 04:34:21;;;;;;;1999.90;999.90;;;;;;;8.63;48.47;95655.22;5074980;28;20496;-61
2023/12/24 04:36:50;;;;;;;1999.90;999.90;;;;;;;8.59;49.04;95639.72;5075027;28;20045;-62
2023/12/24 04:39:17;;;;;;;1999.90;999.90;;;;;;;8.52;49.21;95659.09;5074974;28;20076;-65
2023/12/24 04:41:44;;;;;;;1999.90;999.90;;;;;;;8.44;49.03;95666.41;5074911;28;20047;-62
2023/12/24 04:44:12;;;;;;;1999.90;999.90;;;;;;;8.45;49.02;95671.56;5074891;28;20081;-64
2023/12/24 04:46:43;;;;;;;1999.90;999.90;;;;;;;8.41;49.29;95663.94;5074787;28;20055;-65
2023/12/24 04:49:10;;;;;;;1999.90;999.90;;;;;;;8.43;48.96;95681.19;5074739;28;20051;-62
2023/12/24 04:51:37;;;;;;;1999.90;999.90;;;;;;;8.47;48.48;95690.59;5074733;28;20506;-64
2023/12/24 04:54:06;;;;;;;1999.90;999.90;;;;;;;8.52;47.99;95703.41;5074547;28;20502;-64
2023/12/24 04:56:32;;;;;;;1999.90;999.90;;;;;;;8.59;47.40;95710.13;5074669;28;20079;-63
2023/12/24 04:58:59;;;;;;;1999.90;999.90;;;;;;;8.68;47.34;95719.28;5074579;28;20098;-62
2023/12/24 05:01:27;;;;;;;1999.90;999.90;;;;;;;8.73;47.49;95724.28;5074542;28;20053;-64
2023/12/24 05:03:54;;;;;;;1999.90;999.90;;;;;;;8.72;47.41;95736.50;5074475;28;20060;-62
2023/12/24 05:06:21;;;;;;;1999.90;999.90;;;;;;;8.71;47.90;95732.19;5074407;28;20055;-64
2023/12/24 05:08:48;;;;;;;1999.90;999.90;;;;;;;8.77;47.65;95744.13;5074396;28;20398;-65
2023/12/24 05:11:17;;;;;;;1999.90;999.90;;;;;;;8.77;47.50;95764.13;5074157;28;20132;-62
2023/12/24 05:13:44;;;;;;;1999.90;999.90;;;;;;;8.72;48.13;95769.53;5074074;28;20075;-62
2023/12/24 05:16:11;;;;;;;1999.90;999.90;;;;;;;8.77;48.39;95761.50;5074186;28;20102;-65
2023/12/24 05:18:38;;;;;;;1999.90;999.90;;;;;;;8.76;48.33;95765.03;5074084;28;20056;-62
2023/12/24 05:21:05;;;;;;;1999.90;999.90;;;;;;;8.74;48.72;95766.84;5074086;28;20048;-64
2023/12/24 05:23:32;;;;;;;1999.90;999.90;;;;;;;8.69;48.58;95765.31;5074104;28;20148;-62
2023/12/24 05:26:00;;;;;;;1999.90;999.90;;;;;;;8.69;48.85;95772.28;5074093;28;20135;-65
2023/12/24 05:28:28;;;;;;;1999.90;999.90;;;;;;;8.70;48.36;95768.78;5074016;28;20052;-66
2023/12/24 05:30:55;;;;;;;1999.90;999.90;;;;;;;8.65;48.84;95782.00;5074044;28;20132;-64
2023/12/24 05:33:23;;;;;;;1999.90;999.90;;;;;;;8.59;48.91;95782.25;5073905;28;20048;-65
2023/12/24 05:35:50;;;;;;;1999.90;999.90;;;;;;;8.64;48.64;95785.50;5073835;28;20055;-62
2023/12/24 05:38:19;;;;;;;1999.90;999.90;;;;;;;8.66;48.38;95782.81;5073854;28;20087;-65
2023/12/24 05:40:47;;;;;;;1999.90;999.90;;;;;;;8.58;48.76;95783.16;5073662;28;20502;-64
2023/12/24 05:43:14;;;;;;;1999.90;999.90;;;;;;;8.57;48.87;95791.88;5073567;28;20135;-65
2023/12/24 05:45:43;;;;;;;1999.90;999.90;;;;;;;8.61;48.97;95793.44;5073564;28;20097;-63
2023/12/24 05:48:11;;;;;;;1999.90;999.90;;;;;;;8.63;48.59;95806.41;5073645;28;20482;-63
2023/12/24 05:50:40;;;;;;;1999.90;999.90;;;;;;;8.67;47.72;95797.56;5073380;28;20053;-63
2023/12/24 05:53:07;;;;;;;1999.90;999.90;;;;;;;8.64;48.75;95801.13;5073636;28;20055;-64
2023/12/24 05:55:34;;;;;;;1999.90;999.90;;;;;;;8.65;48.46;95805.47;5073611;28;20045;-62
2023/12/24 05:58:02;;;;;;;1999.90;999.90;;;;;;;8.70;48.20;95810.50;5073563;28;20048;-63
2023/12/24 06:00:29;;;;;;;1999.90;999.90;;;;;;;8.68;47.66;95805.34;5073522;28;20040;-64
2023/12/24 06:02:58;;;;;;;1999.90;999.90;;;;;;;8.71;47.67;95812.16;5073472;28;20045;-64
2023/12/24 06:05:26;;;;;;;1999.90;999.90;;;;;;;8.81;48.03;95810.00;5073339;28;20105;-63
2023/12/24 06:07:53;;;;;;;1999.90;999.90;;;;;;;8.87;47.01;95809.75;5073341;28;20048;-62
2023/12/24 06:10:21;;;;;;;1999.90;999.90;;;;;;;8.87;47.10;95809.75;5073288;28;20131;-63
2023/12/24 06:12:53;;;;;;;1999.90;999.90;;;;;;;8.91;47.01;95800.88;5073147;28;20048;-65
2023/12/24 06:15:20;;;;;;;1999.90;999.90;;;;;;;9.01;46.28;95798.72;5073255;28;20406;-65
2023/12/24 06:17:48;;;;;;;1999.90;999.90;;;;;;;9.05;46.19;95812.47;5072804;28;20501;-65
2023/12/24 06:20:17;;;;;;;1999.90;999.90;;;;;;;9.01;46.38;95803.09;5073246;28;20403;-63
2023/12/24 06:22:44;;;;;;;1999.90;999.90;;;;;;;9.04;46.84;95811.66;5073216;28;20044;-64
2023/12/24 06:25:11;;;;;;;1999.90;999.90;;;;;;;9.14;46.82;95817.31;5072348;28;20053;-64
2023/12/24 06:27:39;;;;;;;1999.90;999.90;;;;;;;9.52;46.36;95826.09;5073135;28;20048;-62
2023/12/24 06:30:08;;;;;;;1999.90;999.90;;;;;;;10.27;44.27;95828.75;5073046;28;20048;-62
2023/12/24 06:32:41;;;;;;;1999.90;999.90;;;;;;;11.00;42.05;95829.56;5073064;28;20498;-64
2023/12/24 06:35:09;;;;;;;1999.90;999.90;;;;;;;11.27;41.13;95834.31;5073043;28;20049;-64
2023/12/24 06:37:40;;;;;;;1999.90;999.90;;;;;;;12.46;40.54;95836.69;5073210;28;20083;-62
2023/12/24 06:40:12;;;;;;;1999.90;999.90;;;;;;;13.98;37.31;95847.06;5073024;28;20127;-63
2023/12/24 06:42:39;;;;;;;1999.90;999.90;;;;;;;14.33;35.74;95853.63;5072980;28;20075;-65
2023/12/24 06:45:09;;;;;;;1999.90;999.90;;;;;;;14.92;34.85;95854.28;5072783;28;20052;-63
2023/12/24 06:47:38;;;;;;;1999.90;999.90;;;;;;;16.60;33.07;95859.50;5072888;28;20052;-63
2023/12/24 06:50:06;;;;;;;1999.90;999.90;;;;;;;17.31;30.78;95864.00;5072910;28;20497;-65
2023/12/24 06:52:34;;;;;;;1999.90;999.90;;;;;;;17.81;29.97;95865.47;5072910;28;20131;-62
2023/12/24 06:55:04;;;;;;;1999.90;999.90;;;;;;;18.44;29.46;95878.22;5072844;28;20041;-63
2023/12/24 06:57:32;;;;;;;1999.90;999.90;;;;;;;19.24;28.81;95887.72;5072787;28;20091;-64
2023/12/24 07:00:00;;;;;;;1999.90;999.90;;;;;;;20.64;26.78;95885.53;5072795;28;20457;-65
2023/12/24 07:02:28;;;;;;;1999.90;999.90;;;;;;;21.75;24.83;95885.34;5072709;28;20045;-62
2023/12/24 07:04:56;;;;;;;1999.90;999.90;;;;;;;22.26;23.73;95909.03;5072614;28;20052;-62
2023/12/24 07:07:27;;;;;;;1999.90;999.90;;;;;;;21.91;24.30;95901.59;5072689;28;20102;-64
2023/12/24 07:09:55;;;;;;;1999.90;999.90;;;;;;;22.28;23.67;95912.41;5072558;28;20049;-65
2023/12/24 07:12:24;;;;;;;1999.90;999.90;;;;;;;22.59;23.37;95901.47;5072648;28;20063;-64
2023/12/24 07:14:52;;;;;;;1999.90;999.90;;;;;;;21.94;23.75;95898.66;5072536;28;20098;-64
2023/12/24 07:17:19;;;;;;;1999.90;999.90;;;;;;;20.71;24.84;95894.63;5072543;28;20056;-65
2023/12/24 07:19:48;;;;;;;1999.90;999.90;;;;;;;19.64;26.22;95914.47;5072316;28;20131;-62
2023/12/24 07:22:17;;;;;;;1999.90;999.90;;;;;;;18.29;28.24;95916.47;5072646;28;20059;-63
2023/12/24 07:24:45;;;;;;;1999.90;999.90;;;;;;;17.37;29.59;95897.03;5072464;28;20499;-61
2023/12/24 07:27:15;;;;;;;1999.90;999.90;;;;;;;16.65;31.21;95899.63;5072683;28;20045;-63
2023/12/24 07:29:45;;;;;;;1999.90;999.90;;;;;;;15.95;32.17;95917.69;5072567;28;20452;-64
2023/12/24 07:32:17;;;;;;;1999.90;999.90;;;;;;;15.22;33.50;95923.44;5072462;28;20106;-63
2023/12/24 07:34:44;;;;;;;1999.90;999.90;;;;;;;14.93;33.88;95923.59;5072876;28;20119;-62
2023/12/24 07:37:13;;;;;;;1999.90;999.90;;;;;;;14.44;34.50;95920.50;5076183;28;20052;-64
2023/12/24 07:39:41;;;;;;;1999.90;999.90;;;;;;;14.25;35.73;95935.69;5076350;28;20049;-63
2023/12/24 07:42:10;;;;;;;1999.90;999.90;;;;;;;14.01;36.19;95938.91;5076010;28;20453;-63
2023/12/24 07:44:43;;;;;;;1999.90;999.90;;;;;;;13.74;35.91;95921.25;5075905;28;20049;-63
2023/12/24 07:47:16;;;;;;;1999.90;999.90;;;;;;;13.44;38.23;95934.38;5075950;28;20083;-63
2023/12/24 07:49:45;;;;;;;1999.90;999.90;;;;;;;13.31;37.27;95934.28;5075927;28;20052;-60
2023/12/24 07:52:17;;;;;;;1999.90;999.90;;;;;;;13.26;37.33;95938.03;5075898;28;20048;-62
2023/12/24 07:54:45;;;;;;;1999.90;999.90;;;;;;;13.20;37.86;95932.28;5076035;28;20054;-65
2023/12/24 07:57:13;;;;;;;1999.90;999.90;;;;;;;13.14;37.50;95930.84;5075810;28;20052;-63
2023/12/24 07:59:47;;;;;;;1999.90;999.90;;;;;;;13.10;37.73;95945.09;5075809;28;20072;-62
2023/12/24 08:02:17;;;;;;;1999.90;999.90;;;;;;;12.91;38.35;95937.44;5075700;28;20044;-62
2023/12/24 08:04:49;;;;;;;1999.90;999.90;;;;;;;12.74;38.32;95934.00;5075578;28;20052;-65
2023/12/24 08:07:23;;;;;;;1999.90;999.90;;;;;;;12.65;38.35;95951.09;5075539;28;20639;-64
2023/12/24 08:09:50;;;;;;;1999.90;999.90;;;;;;;12.60;38.52;95953.97;5075605;28;20127;-61
2023/12/24 08:12:19;;;;;;;1999.90;999.90;;;;;;;12.63;37.89;95960.81;5075589;28;20098;-63
2023/12/24 08:14:50;;;;;;;1999.90;999.90;;;;;;;12.46;38.48;95932.91;5075495;28;20048;-65
2023/12/24 08:17:21;;;;;;;1999.90;999.90;;;;;;;12.70;38.95;95962.16;5074761;28;20049;-62
2023/12/24 08:19:51;;;;;;;1999.90;999.90;;;;;;;12.76;38.94;95971.47;5075247;28;20526;-63
2023/12/24 08:22:20;;;;;;;1999.90;999.90;;;;;;;12.78;37.50;95977.50;5075305;28;20074;-65
2023/12/24 08:24:53;;;;;;;1999.90;999.90;;;;;;;12.74;38.09;95989.09;5075220;28;20305;-60
2023/12/24 08:27:23;;;;;;;1999.90;999.90;;;;;;;12.70;38.01;95984.97;5075214;28;20048;-60
2023/12/24 08:29:52;;;;;;;1999.90;999.90;;;;;;;12.76;38.79;95998.56;5075138;28;20084;-67
2023/12/24 08:32:26;;;;;;;1999.90;999.90;;;;;;;12.88;38.39;95985.69;5075237;28;20060;-62
2023/12/24 08:34:54;;;;;;;1999.90;999.90;;;;;;;13.37;37.85;95995.16;5075042;28;20041;-65
2023/12/24 08:37:25;;;;;;;1999.90;999.90;;;;;;;13.71;37.16;95997.63;5075020;28;20127;-65
2023/12/24 08:39:56;;;;;;;1999.90;999.90;;;;;;;14.56;36.10;95980.25;5074949;28;20044;-65
2023/12/24 08:42:28;;;;;;;1999.90;999.90;;;;;;;15.86;34.96;96000.94;5074876;28;20052;-61
2023/12/24 08:44:59;;;;;;;1999.90;999.90;;;;;;;16.49;33.23;95989.59;5074826;28;20102;-66
2023/12/24 08:47:34;;;;;;;1999.90;999.90;;;;;;;16.48;33.31;95988.78;5073917;28;20123;-63
2023/12/24 08:50:02;;;;;;;1999.90;999.90;;;;;;;16.29;33.33;95995.34;5074693;28;20099;-62
2023/12/24 08:52:32;;;;;;;1999.90;999.90;;;;;;;16.14;33.41;95985.88;5074741;28;20041;-64
2023/12/24 08:55:06;;;;;;;1999.90;999.90;;;;;;;16.29;33.80;95981.31;5074594;28;20486;-65
2023/12/24 08:57:39;;;;;;;1999.90;999.90;;;;;;;16.37;33.78;95986.03;5074560;28;20136;-63
2023/12/24 09:00:12;;;;;;;1999.90;999.90;;;;;;;16.78;32.57;95976.13;5074481;28;20136;-65
2023/12/24 09:02:47;;;;;;;1999.90;999.90;;;;;;;16.65;32.51;95963.81;5074024;28;20059;-62
2023/12/24 09:05:18;;;;;;;1999.90;999.90;;;;;;;16.31;33.14;95973.31;5074002;28;20118;-64
2023/12/24 09:10:33;;;;;;;1999.90;999.90;;;;;;;15.54;34.96;95983.69;5073709;28;20088;-66
2023/12/24 09:13:14;;;;;;;1999.90;999.90;;;;;;;15.08;35.78;95951.53;5074184;28;20048;-65
2023/12/24 09:15:42;;;;;;;1999.90;999.90;;;;;;;14.65;36.08;95940.19;5074140;28;20051;-63
2023/12/24 09:18:11;;;;;;;1999.90;999.90;;;;;;;14.31;37.18;95937.09;5073871;28;20529;-64
2023/12/24 09:20:39;;;;;;;1999.90;999.90;;;;;;;13.98;36.95;95915.41;5074110;28;20051;-64
2023/12/24 09:23:06;;;;;;;1999.90;999.90;;;;;;;13.66;37.92;95915.59;5074071;28;20139;-61
2023/12/24 09:25:33;;;;;;;1999.90;999.90;;;;;;;13.56;38.00;95907.44;5073940;28;20496;-65
2023/12/24 09:28:00;;;;;;;1999.90;999.90;;;;;;;13.41;37.48;95896.03;5074281;28;20053;-65
2023/12/24 09:30:28;;;;;;;1999.90;999.90;;;;;;;13.49;37.79;95888.53;5074309;28;20151;-64
2023/12/24 09:32:57;;;;;;;1999.90;999.90;;;;;;;13.78;37.14;95885.09;5074067;28;20056;-66
2023/12/24 09:35:27;;;;;;;1999.90;999.90;;;;;;;13.99;36.65;95889.94;5073806;28;20456;-64
2023/12/24 09:37:54;;;;;;;1999.90;999.90;;;;;;;14.06;36.67;95893.06;5073839;28;20045;-63
2023/12/24 09:40:25;;;;;;;1999.90;999.90;;;;;;;14.14;36.12;95889.00;5073780;28;20407;-64
2023/12/24 09:42:52;;;;;;;;;;;;;;;14.20;36.60;95910.59;5074174;28;20106;-64
2023/12/24 09:45:21;;;;;;;1999.90;999.90;;;;;;;14.20;36.43;95913.22;5073652;28;20036;-63
2023/12/24 09:47:49;;;;;;;1999.90;999.90;;;;;;;14.15;36.33;95916.16;5073639;28;20051;-64
2023/12/24 09:50:25;;;;;;;1999.90;999.90;;;;;;;14.00;36.39;95917.94;5073627;28;20060;-64
2023/12/24 09:52:54;;;;;;;1999.90;999.90;;;;;;;13.73;36.59;95900.31;5073576;28;20483;-67
2023/12/24 09:55:22;;;;;;;1999.90;999.90;;;;;;;13.46;37.48;95927.28;5073571;28;20048;-66
2023/12/24 09:57:50;;;;;;;1999.90;999.90;;;;;;;13.29;37.12;95908.09;5073403;28;20079;-64
2023/12/24 10:00:18;;;;;;;1999.90;999.90;;;;;;;13.12;37.94;95914.31;5073523;28;20040;-60
2023/12/24 10:02:46;;;;;;;1999.90;999.90;;;;;;;12.90;38.42;95889.34;5073433;28;20517;-62
2023/12/24 10:05:14;;;;;;;1999.90;999.90;;;;;;;12.74;38.45;95876.25;5073337;28;20048;-65
2023/12/24 10:07:45;;;;;;;1999.90;999.90;;;;;;;12.72;38.89;95881.59;5073326;28;20062;-62
2023/12/24 10:10:15;;;;;;;1999.90;999.90;;;;;;;12.69;38.75;95887.00;5073474;28;20146;-65
2023/12/24 10:12:43;;;;;;;1999.90;999.90;;;;;;;12.68;39.16;95876.59;5073269;28;20044;-61
2023/12/24 10:15:18;;;;;;;1999.90;999.90;;;;;;;12.64;38.35;95871.53;5073198;28;20508;-66
2023/12/24 10:17:48;;;;;;;1999.90;999.90;;;;;;;12.69;39.17;95879.13;5072362;28;20052;-66
2023/12/24 10:20:15;;;;;;;1999.90;999.90;;;;;;;12.81;38.98;95892.47;5073315;28;20093;-65
2023/12/24 10:22:43;;;;;;;1999.90;999.90;;;;;;;12.86;38.80;95883.41;5073230;28;20068;-67
2023/12/24 10:25:15;;;;;;;1999.90;999.90;;;;;;;12.85;38.82;95868.59;5073214;28;20167;-65
2023/12/24 10:27:44;;;;;;;1999.90;999.90;;;;;;;12.91;38.46;95891.00;5073216;28;20047;-62
2023/12/24 10:30:13;;;;;;;1999.90;999.90;;;;;;;12.83;38.68;95886.22;5073001;28;20478;-61
2023/12/24 10:32:41;;;;;;;1999.90;999.90;;;;;;;12.81;38.65;95885.47;5072900;28;20106;-67
2023/12/24 10:35:09;;;;;;;1999.90;999.90;;;;;;;12.77;40.08;95879.53;5072990;28;20485;-61
2023/12/24 10:37:37;;;;;;;1999.90;999.90;;;;;;;12.59;41.57;95889.31;5073015;28;20044;-62
2023/12/24 10:40:09;;;;;;;1999.90;999.90;;;;;;;12.47;42.49;95887.38;5072771;28;20457;-66
2023/12/24 10:42:46;;;;;;;1999.90;999.90;;;;;;;12.38;43.26;95915.78;5073119;28;20075;-63
2023/12/24 10:45:16;;;;;;;1999.90;999.90;;;;;;;12.24;43.66;95898.22;5072753;28;20051;-66
2023/12/24 10:47:44;;;;;;;1999.90;999.90;;;;;;;12.25;43.65;95899.91;5073076;28;20079;-62
2023/12/24 10:50:12;;;;;;;1999.90;999.90;;;;;;;12.26;43.91;95911.25;5072858;28;20473;-64
2023/12/24 10:52:39;;;;;;;1999.90;999.90;;;;;;;12.08;44.13;95894.75;5072932;28;20045;-65
2023/12/24 10:55:08;;;;;;;1999.90;999.90;;;;;;;12.02;44.19;95901.13;5072977;28;20044;-65
2023/12/24 10:57:47;;;;;;;1999.90;999.90;;;;;;;11.90;44.77;95910.50;5072897;28;20045;-63
2023/12/24 11:00:25;;;;;;;1999.90;999.90;;;;;;;11.85;44.86;95908.13;5072796;28;20045;-63
2023/12/24 11:02:56;;;;;;;1999.90;999.90;;;;;;;11.77;45.08;95899.81;5072739;28;20055;-64
2023/12/24 11:05:48;;;;;;;1999.90;999.90;;;;;;;11.76;45.38;95908.59;5072591;28;20055;-64
2023/12/24 11:08:32;;;;;;;1999.90;999.90;;;;;;;11.78;45.27;95904.16;5072679;28;20052;-63